25°C Temp
18°C Dewpoint
65% Humidity
Temperature
8 KM/H
5 MPH
4 KTS
130°
South East

Wind Speed
Clear
Conditions
Pressure 1017.92 (hPa) - 30.06 (in)
Visibility 6.2 (mi) - 10.0 (km)

Current Conditions
LEMG
Location 9(km)
Metar :LEMG 140900Z 13004KT 070V230 CAVOK 25/18 Q1018 NOSIG
Mon 14th June 11:00 am

Airport
  Metar Aviation API Data Provided by https://www.checkwx.com/ PHP scripts by weather34.com ©2021